Axtell, UT

10:07 AM MDT on October 24, 2014 (GMT -0600)
Carbon County | Change Station
CLOSE
Current Station
Airport
Location: Price,
Elevation: 5955 ft
Nearby Weather Stations
Active Advisory: Special Statement

Elev 5955 ft 39.61 °N, 110.75 °W | Updated 14 minutes ago

Clear
Clear
54 °F
Feels Like 54 °F
N
0
Wind Variable Wind from North

Today
High -- | Low -- °F
--% Chance of Precip.
Yesterday
High -- | Low -- °F
Precip. -- in
7:46 AM 6:35 PM
New Moon, 1% visible
Pressure 30.26 in
Visibility 10.0 miles
Clouds Clear
Dew Point 35 °F
Humidity 49%
Rainfall 0.00 in
Snow Depth 0 in , 0 in
UV 2 out of 12
Pollen 1.60 out of 12
Air Quality Not available.
Flu Activity Sporadic
METAR KPUC 241553Z AUTO 00000KT 10SM CLR 12/02 A3033 RMK AO2 SLP245 T01220017 TSNO

More Conditions Fewer Conditions

Pressure 30.26 in
Visibility 10.0 miles
Clouds Clear
Dew Point 35 °F
Humidity 49%
Rainfall 0.00 in
Snow Depth 0 in , 0 in
UV 2 out of 12
Pollen 1.60 out of 12
Air Quality Not available.
Flu Activity Sporadic
METAR KPUC 241553Z AUTO 00000KT 10SM CLR 12/02 A3033 RMK AO2 SLP245 T01220017 TSNO

More Conditions Fewer Conditions

10-Day Weather Forecast

Almanac

Astronomy

Oct. 24, 2014 Rise Set
Actual Time 7:46 AM MDT 6:35 PM MDT
Civil Twilight 7:18 AM MDT 7:03 PM MDT
Nautical Twilight 6:47 AM MDT 7:34 PM MDT
Astronomical Twilight 6:16 AM MDT 8:05 PM MDT
Moon 8:28 AM MDT 7:18 PM MDT
Length of Visible Light 11h 44m
Length of Day
10h 49m
Tomorrow will be 2m 21s shorter.
New Moon, 1% of the Moon is Illuminated
Today
New Moon
Oct 30
First Quarter
Nov 6
Full
Nov 14
Last Quarter
Nov 22
New

Today's Extremes

State Highs State Lows

Community

WunderPhotos

Upload Photos

1,764,597 photos uploaded!

WunderBlogs® & News

Nearby

Snow Depth

Station Depth Elevation
Pickle Keg 0 in 9600 ft
Buck Flat 0 in 9800 ft
Gooseberry R.S. 0 in 7920 ft
Seeley Creek 0 in 10000 ft
Farnsworth Lake 0 in 9600 ft

Earthquake Activity

City Distance Mag. Time & Date
Ferron, Utah 21 miles 2.5 10:53 PM MDT
2014-10-21
Minimum magnitude displayed is 2.5.

Coastal Water Temperatures

Place Temperature
No Stations Reporting

Nearby Weather Stations